createdAt,value
2022-09-06T00:01:02.859Z,3.30
2022-09-06T00:03:39.960Z,3.58
2022-09-06T00:06:16.191Z,2.22
2022-09-06T00:08:50.489Z,2.85
2022-09-06T00:11:25.351Z,2.15
2022-09-06T00:13:58.929Z,2.83
2022-09-06T00:19:05.956Z,3.72
2022-09-06T00:21:39.049Z,2.17
2022-09-06T00:24:12.516Z,4.20
2022-09-06T00:26:45.914Z,3.67
2022-09-06T00:29:19.345Z,1.87
2022-09-06T00:31:52.222Z,3.15
2022-09-06T00:34:25.263Z,2.60
2022-09-06T00:36:58.401Z,2.55
2022-09-06T00:39:31.677Z,2.58
2022-09-06T00:42:07.540Z,1.60
2022-09-06T00:44:41.578Z,4.58
2022-09-06T00:47:14.629Z,2.95
2022-09-06T00:49:49.309Z,2.10
2022-09-06T00:52:23.511Z,2.22
2022-09-06T00:54:56.483Z,3.67
2022-09-06T00:57:32.470Z,2.42
2022-09-06T01:00:09.386Z,3.37
2022-09-06T01:02:44.352Z,1.87
2022-09-06T01:05:39.169Z,3.45
2022-09-06T01:08:26.058Z,1.92
2022-09-06T01:11:07.577Z,3.42
2022-09-06T01:14:09.683Z,3.17
2022-09-06T01:17:11.580Z,2.20
2022-09-06T01:20:13.450Z,2.20
2022-09-06T01:23:21.268Z,1.82
2022-09-06T01:26:18.918Z,2.10
2022-09-06T01:28:52.524Z,1.92
2022-09-06T01:31:50.703Z,1.92
2022-09-06T01:34:39.765Z,4.08
2022-09-06T01:37:15.711Z,1.70
2022-09-06T01:39:51.403Z,2.45
2022-09-06T01:42:29.698Z,3.42
2022-09-06T01:45:17.407Z,2.33
2022-09-06T01:48:00.755Z,1.77
2022-09-06T01:50:50.528Z,5.65
2022-09-06T01:53:49.638Z,2.77
2022-09-06T01:56:53.245Z,4.45
2022-09-06T02:00:13.023Z,2.37
2022-09-06T02:03:01.792Z,2.25
2022-09-06T02:05:51.141Z,2.75
2022-09-06T02:08:34.806Z,1.80
2022-09-06T02:11:09.618Z,2.90
2022-09-06T02:13:59.407Z,3.42
2022-09-06T02:16:32.941Z,3.35
2022-09-06T02:19:13.807Z,2.87
2022-09-06T02:21:47.802Z,2.50
2022-09-06T02:24:27.740Z,4.28
2022-09-06T02:27:01.134Z,3.00
2022-09-06T02:29:34.601Z,3.60
2022-09-06T02:32:26.289Z,3.05
2022-09-06T02:34:59.823Z,2.90
2022-09-06T02:37:33.390Z,2.73
2022-09-06T02:40:08.354Z,5.63
2022-09-06T02:42:42.120Z,4.90
2022-09-06T02:45:15.524Z,4.22
2022-09-06T02:47:50.504Z,4.08
2022-09-06T02:50:23.421Z,4.42
2022-09-06T02:53:13.662Z,4.83
2022-09-06T02:55:49.036Z,3.40
2022-09-06T02:58:22.369Z,7.45
2022-09-06T03:01:16.652Z,4.15
2022-09-06T03:03:49.718Z,5.40
2022-09-06T03:06:22.820Z,5.90
2022-09-06T03:08:56.317Z,3.95
2022-09-06T03:11:30.520Z,6.75
2022-09-06T03:14:03.943Z,6.42
2022-09-06T03:16:39.912Z,5.97
2022-09-06T03:19:13.075Z,4.40
2022-09-06T03:21:47.420Z,5.08
2022-09-06T03:26:53.020Z,5.55
2022-09-06T03:29:26.251Z,5.75
2022-09-06T03:32:00.582Z,6.33
2022-09-06T03:37:06.246Z,5.37
2022-09-06T03:39:39.746Z,6.25
2022-09-06T03:42:13.034Z,5.62
2022-09-06T03:44:46.126Z,4.35
2022-09-06T03:47:19.849Z,9.13
2022-09-06T03:49:52.945Z,8.68
2022-09-06T03:52:26.177Z,7.47
2022-09-06T03:55:00.627Z,6.12
2022-09-06T03:57:33.921Z,5.05
2022-09-06T04:00:07.955Z,6.90
2022-09-06T04:02:42.808Z,5.95
2022-09-06T04:05:16.808Z,5.47
2022-09-06T04:07:50.070Z,5.83
2022-09-06T04:10:23.125Z,13.88
2022-09-06T04:12:56.880Z,10.10
2022-09-06T04:15:30.052Z,7.60
2022-09-06T04:18:08.535Z,6.47
2022-09-06T04:23:10.457Z,6.62
2022-09-06T04:25:46.005Z,11.40
2022-09-06T04:28:19.767Z,16.15
2022-09-06T04:31:05.196Z,19.03
2022-09-06T04:33:39.145Z,18.30
2022-09-06T04:36:12.633Z,14.13
2022-09-06T04:38:47.531Z,9.20
2022-09-06T04:41:21.685Z,12.18
2022-09-06T04:43:54.931Z,9.85
2022-09-06T04:46:31.838Z,10.10
2022-09-06T04:49:05.885Z,9.75
2022-09-06T04:51:39.947Z,9.45
2022-09-06T04:54:13.254Z,12.13
2022-09-06T04:56:47.460Z,10.08
2022-09-06T04:59:20.614Z,13.95
2022-09-06T05:01:53.825Z,33.20
2022-09-06T05:04:28.770Z,20.30
2022-09-06T05:09:37.190Z,17.42
2022-09-06T05:12:11.018Z,11.63
2022-09-06T05:14:44.509Z,12.50
2022-09-06T05:17:17.701Z,17.65
2022-09-06T05:19:51.437Z,18.95
2022-09-06T05:22:24.629Z,14.53
2022-09-06T05:24:58.882Z,17.07
2022-09-06T05:30:06.020Z,11.22
2022-09-06T05:32:39.824Z,11.78
2022-09-06T05:35:12.948Z,14.05
2022-09-06T05:37:45.915Z,13.83
2022-09-06T05:40:19.519Z,11.00
2022-09-06T05:42:52.631Z,11.00
2022-09-06T05:45:26.436Z,14.93
2022-09-06T05:48:00.311Z,12.82
2022-09-06T05:50:33.646Z,13.13
2022-09-06T05:53:06.752Z,21.93
2022-09-06T05:55:42.850Z,20.48
2022-09-06T05:58:15.908Z,11.00
2022-09-06T06:00:48.987Z,13.58
2022-09-06T06:03:22.026Z,11.00
2022-09-06T06:05:56.447Z,8.63
2022-09-06T06:08:29.987Z,11.53
2022-09-06T06:11:03.399Z,8.88
2022-09-06T06:16:14.503Z,7.30
2022-09-06T06:18:51.953Z,12.55
2022-09-06T06:21:24.934Z,8.50
2022-09-06T06:24:19.820Z,9.35
2022-09-06T06:26:53.922Z,6.72
2022-09-06T06:29:28.133Z,9.05
2022-09-06T06:32:01.289Z,6.33
2022-09-06T06:34:35.360Z,6.30
2022-09-06T06:37:11.310Z,5.97
2022-09-06T06:39:44.311Z,6.35
2022-09-06T06:42:17.488Z,7.08
2022-09-06T06:44:56.467Z,7.97
2022-09-06T06:47:31.252Z,11.08
2022-09-06T06:50:04.386Z,5.53
2022-09-06T06:52:38.044Z,8.28
2022-09-06T06:55:11.755Z,8.03
2022-09-06T06:57:45.512Z,6.28
2022-09-06T07:00:18.934Z,8.48
2022-09-06T07:02:53.268Z,5.65
2022-09-06T07:08:03.728Z,6.25
2022-09-06T07:10:37.275Z,13.05
2022-09-06T07:15:57.885Z,13.08
2022-09-06T07:18:31.739Z,8.70
2022-09-06T07:26:21.225Z,9.33
2022-09-06T07:29:00.923Z,9.03
2022-09-06T07:34:08.947Z,10.23
2022-09-06T07:36:43.271Z,9.53
2022-09-06T07:39:17.477Z,6.80
2022-09-06T07:44:23.415Z,6.97
2022-09-06T07:49:34.750Z,9.33
2022-09-06T07:54:41.175Z,10.38
2022-09-06T07:57:14.253Z,10.75
2022-09-06T07:59:47.844Z,10.00
2022-09-06T08:02:21.126Z,13.30
2022-09-06T08:04:56.576Z,11.05
2022-09-06T08:07:39.034Z,11.55
2022-09-06T08:10:07.138Z,8.80
2022-09-06T08:12:40.440Z,10.15
2022-09-06T08:15:14.013Z,7.15
2022-09-06T08:17:52.597Z,8.50
2022-09-06T08:20:25.983Z,4.95
2022-09-06T08:23:00.286Z,3.65
2022-09-06T08:25:34.597Z,7.33
2022-09-06T08:30:40.259Z,7.22
2022-09-06T08:33:14.072Z,7.28
2022-09-06T08:35:49.679Z,5.72
2022-09-06T08:38:22.858Z,3.15
2022-09-06T08:40:57.033Z,2.87
2022-09-06T08:43:30.185Z,3.75
2022-09-06T08:46:04.953Z,2.65
2022-09-06T08:48:41.525Z,2.42
2022-09-06T08:51:43.493Z,2.30
2022-09-06T08:54:33.995Z,2.30
2022-09-06T08:57:23.362Z,5.12
2022-09-06T09:00:02.601Z,6.25
2022-09-06T09:02:46.032Z,4.60
2022-09-06T09:05:33.667Z,8.90
2022-09-06T09:08:49.867Z,7.55
2022-09-06T09:11:25.750Z,6.83
2022-09-06T09:14:24.712Z,7.97
2022-09-06T09:17:07.754Z,6.42
2022-09-06T09:19:42.330Z,11.88
2022-09-06T09:22:18.347Z,8.70
2022-09-06T09:24:53.553Z,5.87
2022-09-06T09:27:28.317Z,7.15
2022-09-06T09:32:45.334Z,8.03
2022-09-06T09:35:42.827Z,10.75
2022-09-06T09:38:27.721Z,11.45
2022-09-06T09:41:08.108Z,10.03
2022-09-06T09:43:47.657Z,12.82
2022-09-06T09:46:33.272Z,8.00
2022-09-06T09:49:12.316Z,7.30
2022-09-06T09:52:06.578Z,7.72
2022-09-06T09:54:45.074Z,8.53
2022-09-06T09:57:19.898Z,7.60
2022-09-06T09:59:59.597Z,9.35
2022-09-06T10:02:38.482Z,10.40
2022-09-06T10:05:20.685Z,15.45
2022-09-06T10:07:56.946Z,18.98
2022-09-06T10:10:36.625Z,18.82
2022-09-06T10:13:22.091Z,25.92
2022-09-06T10:15:55.843Z,26.55
2022-09-06T10:18:38.032Z,35.55
2022-09-06T10:21:19.676Z,38.85
2022-09-06T10:24:30.427Z,41.50
2022-09-06T10:26:58.697Z,44.42
2022-09-06T10:29:58.650Z,43.60
2022-09-06T10:33:02.252Z,52.38
2022-09-06T10:35:40.155Z,49.20
2022-09-06T10:38:41.015Z,36.35
2022-09-06T10:41:57.946Z,41.73
2022-09-06T10:45:19.853Z,39.15
2022-09-06T10:48:19.103Z,51.75
2022-09-06T10:51:10.967Z,62.10
2022-09-06T10:53:52.279Z,56.80
2022-09-06T10:56:35.785Z,45.28
2022-09-06T11:02:31.238Z,50.83
2022-09-06T11:10:38.851Z,51.42
2022-09-06T11:13:22.076Z,51.10
2022-09-06T11:16:18.771Z,55.65
2022-09-06T11:19:02.975Z,54.73
2022-09-06T11:21:44.460Z,61.18
2022-09-06T11:24:26.766Z,61.83
2022-09-06T11:27:25.457Z,61.25
2022-09-06T11:29:58.952Z,68.57
2022-09-06T11:32:48.328Z,66.17
2022-09-06T11:35:35.248Z,68.17
2022-09-06T11:38:19.392Z,80.35
2022-09-06T11:41:02.309Z,93.95
2022-09-06T11:43:53.470Z,88.65
2022-09-06T11:46:41.186Z,81.47
2022-09-06T11:49:38.192Z,71.00
2022-09-06T11:52:49.394Z,67.85
2022-09-06T11:55:38.250Z,63.17
2022-09-06T11:58:22.154Z,62.78
2022-09-06T12:01:22.315Z,58.30
2022-09-06T12:04:04.160Z,43.68
2022-09-06T12:06:44.167Z,41.02
2022-09-06T12:09:34.078Z,37.10
2022-09-06T12:12:11.449Z,29.87
2022-09-06T12:14:50.518Z,27.02
2022-09-06T12:17:23.845Z,26.62
2022-09-06T12:20:07.812Z,30.60
2022-09-06T12:22:52.673Z,28.23
2022-09-06T12:25:44.144Z,22.77
2022-09-06T12:28:31.107Z,22.05
2022-09-06T12:31:07.526Z,25.65
2022-09-06T12:33:43.507Z,24.32
2022-09-06T12:39:13.783Z,22.42
2022-09-06T12:41:49.876Z,26.50
2022-09-06T12:44:28.257Z,26.57
2022-09-06T12:47:06.131Z,23.25
2022-09-06T12:49:39.859Z,25.95
2022-09-06T12:52:17.862Z,21.70
2022-09-06T12:54:51.784Z,24.80
2022-09-06T12:57:27.966Z,23.80
2022-09-06T13:00:01.973Z,26.65
2022-09-06T13:02:56.891Z,31.25
2022-09-06T13:05:30.124Z,33.20
2022-09-06T13:08:05.238Z,36.38
2022-09-06T13:10:40.208Z,30.35
2022-09-06T13:13:15.349Z,31.00
2022-09-06T13:15:50.082Z,33.40
2022-09-06T13:18:49.329Z,32.45
2022-09-06T13:21:34.207Z,34.73
2022-09-06T13:24:24.908Z,35.60
2022-09-06T13:26:57.889Z,44.67
2022-09-06T13:29:34.396Z,51.80
2022-09-06T13:32:14.718Z,49.67
2022-09-06T13:34:53.990Z,50.43
2022-09-06T13:37:29.845Z,49.65
2022-09-06T13:40:04.849Z,41.55
2022-09-06T13:42:38.202Z,40.98
2022-09-06T13:45:32.344Z,38.80
2022-09-06T13:48:26.173Z,31.87
2022-09-06T13:50:42.018Z,28.60
2022-09-06T13:53:19.130Z,24.80
2022-09-06T13:55:53.132Z,23.10
2022-09-06T13:58:27.673Z,22.25
2022-09-06T14:03:33.875Z,23.30
2022-09-06T14:06:09.081Z,22.10
2022-09-06T14:09:05.826Z,22.62
2022-09-06T14:11:18.530Z,23.57
2022-09-06T14:13:51.621Z,19.90
2022-09-06T14:16:25.220Z,19.60
2022-09-06T14:18:59.336Z,21.55
2022-09-06T14:21:33.177Z,17.95
2022-09-06T14:24:06.961Z,19.73
2022-09-06T14:26:42.983Z,18.30
2022-09-06T14:29:17.182Z,18.27
2022-09-06T14:31:51.577Z,18.85
2022-09-06T14:34:25.962Z,20.35
2022-09-06T14:36:58.857Z,18.55
2022-09-06T14:39:32.438Z,20.85
2022-09-06T14:42:05.740Z,19.10
2022-09-06T14:44:40.808Z,16.00
2022-09-06T14:49:57.921Z,17.67
2022-09-06T14:52:31.348Z,18.80
2022-09-06T14:55:04.819Z,21.30
2022-09-06T14:57:38.171Z,19.52
2022-09-06T15:00:12.739Z,22.37
2022-09-06T15:02:47.510Z,18.98
2022-09-06T15:05:20.468Z,25.85
2022-09-06T15:07:54.801Z,19.25
2022-09-06T15:10:28.416Z,23.23
2022-09-06T15:13:02.679Z,18.07
2022-09-06T15:15:37.033Z,16.87
2022-09-06T15:18:10.933Z,18.65
2022-09-06T15:20:45.146Z,17.10
2022-09-06T15:23:25.804Z,18.42
2022-09-06T15:25:54.381Z,18.92
2022-09-06T15:28:27.365Z,26.95
2022-09-06T15:31:01.904Z,16.80
2022-09-06T15:36:30.311Z,24.92
2022-09-06T15:39:04.324Z,18.07
2022-09-06T15:41:40.379Z,13.98
2022-09-06T15:44:16.852Z,16.95
2022-09-06T15:46:55.282Z,15.60
2022-09-06T15:49:33.965Z,15.85
2022-09-06T15:52:08.171Z,16.48
2022-09-06T15:54:52.742Z,12.73
2022-09-06T15:57:25.744Z,14.25
2022-09-06T15:59:59.393Z,12.98
2022-09-06T16:02:33.393Z,15.85
2022-09-06T16:08:03.141Z,12.80
2022-09-06T16:10:39.935Z,13.03
2022-09-06T16:13:13.289Z,13.10
2022-09-06T16:15:49.577Z,15.55
2022-09-06T16:18:24.247Z,22.67
2022-09-06T16:20:57.651Z,20.97
2022-09-06T16:23:31.140Z,14.73
2022-09-06T16:26:08.134Z,15.65
2022-09-06T16:28:41.349Z,12.78
2022-09-06T16:31:14.401Z,14.20
2022-09-06T16:33:49.258Z,13.22
2022-09-06T16:36:24.806Z,12.68
2022-09-06T16:38:58.179Z,12.30
2022-09-06T16:41:40.896Z,15.58
2022-09-06T16:44:17.526Z,12.70
2022-09-06T16:46:53.560Z,12.05
2022-09-06T16:49:27.592Z,11.10
2022-09-06T16:52:01.097Z,13.05
2022-09-06T16:54:37.593Z,14.03
2022-09-06T16:57:11.375Z,11.83
2022-09-06T16:59:45.534Z,15.00
2022-09-06T17:02:18.879Z,14.55
2022-09-06T17:04:54.166Z,14.70
2022-09-06T17:07:27.979Z,17.23
2022-09-06T17:10:01.895Z,14.78
2022-09-06T17:12:35.691Z,16.30
2022-09-06T17:15:10.858Z,14.30
2022-09-06T17:17:44.487Z,15.65
2022-09-06T17:20:19.321Z,18.20
2022-09-06T17:22:52.951Z,15.83
2022-09-06T17:25:26.267Z,14.67
2022-09-06T17:28:00.488Z,15.45
2022-09-06T17:30:34.785Z,15.18
2022-09-06T17:33:09.604Z,18.57
2022-09-06T17:36:17.935Z,13.95
2022-09-06T17:38:53.359Z,18.07
2022-09-06T17:41:39.547Z,18.65
2022-09-06T17:44:14.897Z,18.45
2022-09-06T17:47:09.216Z,20.15
2022-09-06T17:49:24.890Z,14.45
2022-09-06T17:51:59.836Z,14.20
2022-09-06T17:54:33.786Z,23.32
2022-09-06T17:57:06.993Z,17.90
2022-09-06T17:59:40.939Z,21.60
2022-09-06T18:02:14.361Z,17.07
2022-09-06T18:04:47.687Z,16.15
2022-09-06T18:07:21.399Z,17.20
2022-09-06T18:09:55.707Z,14.20
2022-09-06T18:12:31.206Z,19.60
2022-09-06T18:15:07.040Z,19.25
2022-09-06T18:17:42.165Z,19.27
2022-09-06T18:20:16.304Z,17.73
2022-09-06T18:22:49.669Z,15.73
2022-09-06T18:25:23.486Z,17.40
2022-09-06T18:27:57.095Z,15.00
2022-09-06T18:30:30.703Z,14.75
2022-09-06T18:33:03.829Z,13.20
2022-09-06T18:35:40.152Z,20.62
2022-09-06T18:38:14.446Z,16.27
2022-09-06T18:40:57.855Z,17.37
2022-09-06T18:43:33.201Z,15.23
2022-09-06T18:46:12.936Z,14.78
2022-09-06T18:48:46.426Z,17.12
2022-09-06T18:51:19.624Z,14.38
2022-09-06T18:53:53.201Z,17.20
2022-09-06T18:59:00.373Z,16.05
2022-09-06T19:01:35.293Z,15.70
2022-09-06T19:04:09.055Z,16.40
2022-09-06T19:06:43.667Z,20.35
2022-09-06T19:09:17.815Z,17.65
2022-09-06T19:11:52.409Z,18.05
2022-09-06T19:14:27.099Z,17.85
2022-09-06T19:17:00.419Z,18.52
2022-09-06T19:19:34.514Z,21.27
2022-09-06T19:22:08.052Z,23.97
2022-09-06T19:24:42.871Z,20.90
2022-09-06T19:27:16.205Z,19.48
2022-09-06T19:29:49.879Z,18.92
2022-09-06T19:32:22.826Z,20.17
2022-09-06T19:34:55.694Z,22.10
2022-09-06T19:37:28.833Z,23.40
2022-09-06T19:40:02.007Z,25.75
2022-09-06T19:42:35.334Z,23.52
2022-09-06T19:45:10.060Z,25.90
2022-09-06T19:47:43.483Z,26.68
2022-09-06T19:50:18.027Z,30.65
2022-09-06T19:52:52.084Z,26.55
2022-09-06T19:55:24.990Z,26.82
2022-09-06T19:57:58.770Z,24.57
2022-09-06T20:00:35.316Z,27.93
2022-09-06T20:03:06.703Z,29.57
2022-09-06T20:05:40.997Z,31.23
2022-09-06T20:08:14.418Z,31.30
2022-09-06T20:10:59.253Z,28.20
2022-09-06T20:13:32.986Z,29.75
2022-09-06T20:16:07.386Z,33.95
2022-09-06T20:18:40.501Z,29.10
2022-09-06T20:21:18.217Z,33.02
2022-09-06T20:23:56.785Z,35.28
2022-09-06T20:26:51.878Z,35.25
2022-09-06T20:29:47.098Z,40.98
2022-09-06T20:32:19.992Z,34.70
2022-09-06T20:34:53.626Z,29.90
2022-09-06T20:37:29.622Z,30.37
2022-09-06T20:40:03.341Z,34.50
2022-09-06T20:42:37.455Z,36.40
2022-09-06T20:45:12.613Z,31.57
2022-09-06T20:47:46.509Z,34.18
2022-09-06T20:50:19.526Z,33.88
2022-09-06T20:52:54.647Z,28.57
2022-09-06T20:55:28.085Z,31.00
2022-09-06T20:58:01.047Z,30.40
2022-09-06T21:00:34.107Z,28.62
2022-09-06T21:03:07.632Z,32.28
2022-09-06T21:05:45.068Z,35.48
2022-09-06T21:08:18.927Z,32.93
2022-09-06T21:11:02.305Z,33.20
2022-09-06T21:13:36.468Z,31.77
2022-09-06T21:18:43.957Z,31.77
2022-09-06T21:21:17.089Z,29.90
2022-09-06T21:23:50.040Z,33.65
2022-09-06T21:26:24.047Z,34.55
2022-09-06T21:28:57.205Z,33.48
2022-09-06T21:31:38.810Z,32.63
2022-09-06T21:34:16.900Z,35.20
2022-09-06T21:36:48.329Z,29.67
2022-09-06T21:39:21.241Z,32.48
2022-09-06T21:41:54.133Z,30.45
2022-09-06T21:44:28.607Z,33.95
2022-09-06T21:47:02.374Z,33.00
2022-09-06T21:49:35.344Z,32.60
2022-09-06T21:52:08.922Z,35.45
2022-09-06T21:54:42.783Z,36.10
2022-09-06T21:57:15.850Z,34.50
2022-09-06T21:59:50.090Z,41.98
2022-09-06T22:02:23.958Z,29.15
2022-09-06T22:04:58.000Z,34.70
2022-09-06T22:07:31.142Z,40.90
2022-09-06T22:10:04.643Z,36.95
2022-09-06T22:12:39.151Z,35.38
2022-09-06T22:15:13.754Z,33.20
2022-09-06T22:17:47.999Z,36.15
2022-09-06T22:20:22.329Z,38.28
2022-09-06T22:23:16.089Z,36.48
2022-09-06T22:25:49.207Z,37.17
2022-09-06T22:28:22.520Z,35.55
2022-09-06T22:30:56.142Z,38.58
2022-09-06T22:33:30.642Z,35.78
2022-09-06T22:36:25.638Z,35.95
2022-09-06T22:38:59.325Z,32.70
2022-09-06T22:41:34.349Z,40.95
2022-09-06T22:44:08.041Z,36.13
2022-09-06T22:49:15.105Z,40.48
2022-09-06T22:51:48.135Z,38.13
2022-09-06T22:54:21.322Z,40.43
2022-09-06T22:56:55.635Z,38.02
2022-09-06T22:59:29.898Z,39.20
2022-09-06T23:02:03.500Z,41.02
2022-09-06T23:04:37.925Z,41.45
2022-09-06T23:07:11.545Z,39.60
2022-09-06T23:09:45.212Z,41.07
2022-09-06T23:12:18.644Z,36.30
2022-09-06T23:14:51.883Z,38.67
2022-09-06T23:17:26.908Z,36.20
2022-09-06T23:20:01.078Z,39.00
2022-09-06T23:22:35.455Z,38.70
2022-09-06T23:25:09.833Z,41.53
2022-09-06T23:27:44.004Z,38.45
2022-09-06T23:30:17.884Z,39.98
2022-09-06T23:32:51.255Z,40.73
2022-09-06T23:35:45.170Z,47.33
2022-09-06T23:38:18.781Z,41.35
2022-09-06T23:40:52.078Z,41.50
2022-09-06T23:43:25.195Z,40.50
2022-09-06T23:45:59.894Z,44.00
2022-09-06T23:51:27.363Z,41.10
2022-09-06T23:54:01.050Z,37.40
2022-09-06T23:56:34.470Z,45.63
2022-09-06T23:59:07.766Z,44.23
